Flight Track Log - Related Links

Times and Time Zones

All times are in EDT time to prevent confusion due to time zone crossing. See the VOZ1487 flight status page for this flight to view local times or setup timezone preferences in your user account.

Time Position Orientation Groundspeed Altitude Reporting Facility
EDT Latitude Longitude Course Direction KTS MPH feet Rate Location/Type
Sat 04:36:05 AM -31.9394 115.9653 194° South 148 170  Level FlightAware ADS-B
Sat 04:36:27 AM -31.9536 115.9612 194° South 151 174 800 1,846 Climbing FlightAware ADS-B
Sat 04:37:10 AM -31.9846 115.9518 194° South 183 211 2,000 1,754 Climbing FlightAware ADS-B
Sat 04:37:32 AM -32.0047 115.9466 192° South 211 243 2,700 2,308 Climbing FlightAware ADS-B
Sat 04:37:49 AM -32.0212 115.9509 168° South 221 254 3,500 1,941 Climbing FlightAware ADS-B
Sat 04:38:06 AM -32.0345 115.9672 134° Southeast 267 307 3,800 2,000 Climbing FlightAware ADS-B
Sat 04:38:49 AM -32.0502 116.0330 106° East 300 345 5,500 2,476 Climbing FlightAware ADS-B
Sat 04:39:09 AM -32.0575 116.0639 106° East 306 352 6,400 3,000 Climbing FlightAware ADS-B
Sat 04:39:27 AM -32.0644 116.0931 106° East 307 353 7,400 3,366 Climbing FlightAware ADS-B
Sat 04:39:50 AM -32.0732 116.1304 106° East 307 353 8,700 3,209 Climbing FlightAware ADS-B
Sat 04:40:10 AM -32.0807 116.1623 105° East 310 357 9,700 2,684 Climbing FlightAware ADS-B
Sat 04:40:28 AM -32.0851 116.1927 100° East 319 367 10,400 2,000 Climbing FlightAware ADS-B
Sat 04:40:40 AM -32.0823 116.2138 81° East 332 382 10,700 1,364 Climbing FlightAware ADS-B
Sat 04:40:50 AM -32.0756 116.2306 65° Northeast 337 388 10,900 1,385 Climbing FlightAware ADS-B
Sat 04:40:53 AM -32.0731 116.2352 56° Northeast 337 388 11,000 2,400 Climbing FlightAware ADS-B
Sat 04:41:25 AM -32.0394 116.2774 56° Northeast 337 388 12,300 2,500 Climbing Aus ATC (RADAR)
Sat 04:41:29 AM -32.0335 116.2855 56° Northeast 349 402 12,500 3,409 Climbing FlightAware ADS-B
Sat 04:42:09 AM -31.9903 116.3395 47° Northeast 327 376 14,800 3,343 Climbing FlightAware ADS-B
Sat 04:42:39 AM -31.9590 116.3784 47° Northeast 329 379 16,400 2,040 Climbing FlightAware ADS-B
Sat 04:42:59 AM -31.9357 116.4021 41° Northeast 340 391 16,500 450 Climbing FlightAware ADS-B
Sat 04:43:19 AM -31.9075 116.4197 28° Northeast 360 414 16,700 1,600 Climbing FlightAware ADS-B
Sat 04:43:59 AM -31.8439 116.4541 25° Northeast 373 429 18,100 2,400 Climbing FlightAware ADS-B
Sat 04:44:29 AM -31.7976 116.4791 25° Northeast 358 412 19,500 2,361 Climbing FlightAware ADS-B
Sat 04:45:00 AM -31.7501 116.5048 25° Northeast 370 426 20,500 1,935 Climbing FlightAware ADS-B
Sat 04:45:31 AM -31.7015 116.5309 25° Northeast 376 433 21,500 1,770 Climbing FlightAware ADS-B
Sat 04:46:01 AM -31.6570 116.5550 25° Northeast 382 440 22,300 1,650 Climbing FlightAware ADS-B
Sat 04:46:11 AM -31.6370 116.5656 24° Northeast 388 447 22,600 1,650 Climbing FlightAware ADS-B
Sat 04:46:41 AM -31.5940 116.5890 25° Northeast 392 451 23,400 1,538 Climbing FlightAware ADS-B
Sat 04:46:50 AM -31.5717 116.6006 24° Northeast 392 451 23,600 1,200 Climbing FlightAware ADS-B
Sat 04:47:21 AM -31.5192 116.6287 24° Northeast 406 467 24,200 1,279 Climbing FlightAware ADS-B
Sat 04:47:51 AM -31.4669 116.6569 25° Northeast 412 474 24,900 1,500 Climbing FlightAware ADS-B
Sat 04:48:21 AM -31.4134 116.6855 25° Northeast 413 475 25,700 1,565 Climbing FlightAware ADS-B
Sat 04:49:00 AM -31.3434 116.7229 25° Northeast 422 486 26,700 1,371 Climbing FlightAware ADS-B
Sat 04:49:31 AM -31.2887 116.7521 25° Northeast 426 490 27,300 952 Climbing FlightAware ADS-B
Sat 04:50:03 AM -31.2313 116.7827 25° Northeast 428 493 27,700 968 Climbing FlightAware ADS-B
Sat 04:50:33 AM -31.1760 116.8123 25° Northeast 429 494 28,300 1,300 Climbing FlightAware ADS-B
Sat 04:51:03 AM -31.1207 116.8417 24° Northeast 428 493 29,000 1,200 Climbing FlightAware ADS-B
Sat 04:51:33 AM -31.0658 116.8709 24° Northeast 441 507 29,500 800 Climbing FlightAware ADS-B
Sat 04:52:03 AM -31.0092 116.9008 24° Northeast 440 506 29,800 800 Climbing FlightAware ADS-B
Sat 04:52:33 AM -30.9528 116.9308 24° Northeast 443 510 30,300 900 Climbing FlightAware ADS-B
Sat 04:53:03 AM -30.8951 116.9613 24° Northeast 448 516 30,700 900 Climbing FlightAware ADS-B
Sat 04:53:33 AM -30.8374 116.9918 24° Northeast 456 525 31,200 700 Climbing FlightAware ADS-B
Sat 04:54:03 AM -30.7798 117.0223 24° Northeast 464 534 31,400 600 Climbing FlightAware ADS-B
Sat 04:54:33 AM -30.7206 117.0536 24° Northeast 462 532 31,800 700 Climbing FlightAware ADS-B
Sat 04:55:03 AM -30.6609 117.0849 24° Northeast 464 534 32,100 800 Climbing FlightAware ADS-B
Sat 04:55:33 AM -30.6006 117.1165 24° Northeast 465 535 32,600 900 Climbing FlightAware ADS-B
Sat 04:56:03 AM -30.5419 117.1474 24° Northeast 463 533 33,000 900 Climbing FlightAware ADS-B
Sat 04:56:33 AM -30.4820 117.1789 24° Northeast 463 533 33,500 1,000 Climbing FlightAware ADS-B
Sat 04:57:03 AM -30.4223 117.2103 24° Northeast 460 529 34,000 1,100 Climbing FlightAware ADS-B
Sat 04:57:33 AM -30.3639 117.2409 24° Northeast 461 531 34,600 871 Climbing FlightAware ADS-B
Sat 04:58:05 AM -30.3021 117.2731 24° Northeast 462 532 34,900 484 Climbing FlightAware ADS-B
Sat 04:58:35 AM -30.2426 117.3040 24° Northeast 460 529 35,100 400 Climbing FlightAware ADS-B
Sat 04:59:05 AM -30.1829 117.3350 24° Northeast 473 544 35,300 500 Climbing FlightAware ADS-B
Sat 04:59:35 AM -30.1229 117.3662 24° Northeast 474 545 35,600 600 Climbing FlightAware ADS-B
Sat 05:00:15 AM -30.0429 117.4078 24° Northeast 474 545 36,000 600 Climbing FlightAware ADS-B
Sat 05:00:45 AM -29.9832 117.4388 24° Northeast 465 535 36,300 700 Climbing FlightAware ADS-B
Sat 05:01:15 AM -29.9231 117.4699 24° Northeast 462 532 36,700 700 Climbing FlightAware ADS-B
Sat 05:01:45 AM -29.8641 117.5005 24° Northeast 461 531 37,000 300 Climbing FlightAware ADS-B
Sat 05:02:15 AM -29.8046 117.5312 24° Northeast 475 547 37,000  Level FlightAware ADS-B
Sat 05:02:45 AM -29.7437 117.5626 24° Northeast 474 545 37,000  Level FlightAware ADS-B
Sat 05:03:17 AM -29.6788 117.5959 24° Northeast 477 549 37,000  Level FlightAware ADS-B
Sat 05:03:56 AM -29.5987 117.6370 24° Northeast 477 549 37,000  Level FlightAware ADS-B
Sat 05:04:26 AM -29.5372 117.6686 24° Northeast 477 549 37,000  Level FlightAware ADS-B
Sat 05:04:56 AM -29.4760 117.6999 24° Northeast 477 549 37,000  Level FlightAware ADS-B
Sat 05:05:26 AM -29.4142 117.7316 24° Northeast 479 551 37,000  Level FlightAware ADS-B
Sat 05:05:56 AM -29.3529 117.7631 24° Northeast 480 552 37,000  Level FlightAware ADS-B
Sat 05:06:26 AM -29.2910 117.7948 24° Northeast 479 551 37,000  Level FlightAware ADS-B
Sat 05:06:56 AM -29.2290 117.8265 24° Northeast 477 549 37,000  Level FlightAware ADS-B
Sat 05:07:26 AM -29.1677 117.8577 24° Northeast 480 552 37,000  Level FlightAware ADS-B
Sat 05:07:56 AM -29.1069 117.8887 24° Northeast 480 552 37,000  Level FlightAware ADS-B
Sat 05:08:33 AM -29.0327 117.9224 24° Northeast 481 554 37,000  Level Aus ATC (RADAR)
Sat 05:08:36 AM -29.0253 117.9302 24° Northeast 479 551 37,000  Level FlightAware ADS-B
Sat 05:09:06 AM -28.9657 117.9604 24° Northeast 476 548 37,000  Level FlightAware ADS-B
Sat 05:09:36 AM -28.9051 117.9912 24° Northeast 474 545 37,000  Level FlightAware ADS-B
Sat 05:10:06 AM -28.8444 118.0218 24° Northeast 474 545 37,000  Level FlightAware ADS-B
Sat 05:10:36 AM -28.7845 118.0521 24° Northeast 475 547 37,000  Level FlightAware ADS-B
Sat 05:11:22 AM -28.6924 118.0984 24° Northeast 477 549 37,000  Level FlightAware ADS-B
Sat 05:12:00 AM -28.6610 118.1150 25° Northeast 474 545 37,000  Level FlightAware ADS-B
Sat 05:12:36 AM -28.6000 118.1460 24° Northeast 474 545 37,000  Level FlightAware ADS-B
Sat 05:13:13 AM -28.5370 118.1780 24° Northeast 474 545 37,000  Level FlightAware ADS-B
Sat 05:13:49 AM -28.4750 118.2090 24° Northeast 474 545 37,000  Level FlightAware ADS-B
Sat 05:14:25 AM -28.4140 118.2400 24° Northeast 474 545 37,000  Level FlightAware ADS-B
Sat 05:15:01 AM -28.3530 118.2710 24° Northeast 474 545 37,000  Level FlightAware ADS-B
Sat 05:15:37 AM -28.2920 118.3020 24° Northeast 474 545 37,000  Level FlightAware ADS-B
Sat 05:16:13 AM -28.2300 118.3330 24° Northeast 474 545 37,000  Level FlightAware ADS-B
Sat 05:16:49 AM -28.1690 118.3640 24° Northeast 474 545 37,000  Level FlightAware ADS-B
Sat 05:17:25 AM -28.1080 118.3950 24° Northeast 474 545 37,000  Level FlightAware ADS-B
Sat 05:18:01 AM -28.0460 118.4260 24° Northeast 474 545 37,000  Level FlightAware ADS-B
Sat 05:18:35 AM -27.9880 118.4550 24° Northeast 474 545 37,000  Level FlightAware ADS-B
Sat 05:19:12 AM -27.9250 118.4870 24° Northeast 474 545 37,000  Level FlightAware ADS-B
Sat 05:19:30 AM -27.6944 118.5609 193° South 37,000  Level Aus ATC (Calculated)
Sat 05:19:48 AM -27.8640 118.5180 24° Northeast 474 545 37,000  Level FlightAware ADS-B
Sat 05:22:00 AM -27.4154 118.6868 22° Northeast  Level FlightAware Approximate
Sat 05:22:16 AM -27.3445 118.7187 21° North 37,000  Level Aus ATC (Calculated)
Sat 05:22:36 AM -27.2716 118.7514 21° North 37,000  Level Aus ATC (Calculated)
Sat 05:24:00 AM -27.1153 118.8214 22° Northeast  Level FlightAware Approximate
Sat 05:25:00 AM -27.0036 118.8714 22° Northeast  Level FlightAware Approximate
Sat 05:26:00 AM -26.8919 118.9212 22° Northeast  Level FlightAware Approximate
Sat 05:27:00 AM -26.7802 118.9709 22° Northeast  Level FlightAware Approximate
Sat 05:27:16 AM -26.6856 119.0041 21° North 37,000  Level Aus ATC (Calculated)
Sat 05:29:00 AM -26.8856 118.9386 196° South  Level FlightAware Approximate
Sat 05:30:00 AM -26.7702 118.9764 16° North  Level FlightAware Approximate
Sat 05:31:00 AM -26.6663 119.0196 21° North  Level FlightAware Approximate
Sat 05:32:00 AM -26.5539 119.0673 21° North  Level FlightAware Approximate
Sat 05:32:12 AM -26.0809 119.2619 22° Northeast 37,000  Level Aus ATC (Calculated)
Sat 05:34:00 AM -25.8787 119.3475 21° North  Level FlightAware Approximate
Sat 05:34:42 AM -25.7920 119.3840 27° Northeast 37,000  Level Aus ATC (Calculated)
Sat 05:35:30 AM -25.7454 119.4105 21° North 455 524 37,000  Level Aus ATC (RADAR)
Sat 05:36:05 AM -25.6756 119.4374 19° North 455 524 37,000  Level Aus ATC (RADAR)
Sat 05:36:55 AM -25.5726 119.4809 21° North 467 537 37,000  Level Aus ATC (RADAR)
Sat 05:37:10 AM -25.5413 119.4949 22° Northeast 471 542 37,000  Level Aus ATC (RADAR)
Sat 05:37:45 AM -25.4706 119.5233 20° North 467 537 37,000  Level Aus ATC (RADAR)
Sat 05:38:50 AM -25.3352 119.5805 21° North 476 548 37,000 -75 Level Aus ATC (RADAR)
Sat 05:39:05 AM -25.3053 119.5921 19° North 470 541 36,900 -133 Descending Aus ATC (RADAR)
Sat 05:39:35 AM -25.2445 119.6173 21° North 468 539 36,900  Level Aus ATC (RADAR)
Sat 05:40:30 AM -25.1327 119.6633 20° North 467 537 36,900  Level Aus ATC (RADAR)
Sat 05:40:40 AM -25.1131 119.6706 19° North 463 533 36,900  Level Aus ATC (RADAR)
Sat 05:41:15 AM -25.0416 119.7004 21° North 467 537 36,900  Level Aus ATC (RADAR)
Sat 05:42:05 AM -24.9381 119.7438 21° North 473 544 36,900  Level Aus ATC (RADAR)
Sat 05:42:15 AM -24.9173 119.7524 21° North 474 545 36,900  Level Aus ATC (RADAR)
Sat 05:42:49 AM -24.8477 119.7801 20° North 465 535 36,900  Level Aus ATC (RADAR)
Sat 05:43:54 AM -24.7143 119.8351 21° North 469 540 36,900  Level Aus ATC (RADAR)
Sat 05:44:05 AM -24.6946 119.8428 20° North 467 537 36,900  Level Aus ATC (RADAR)
Sat 05:44:39 AM -24.6221 119.8731 21° North 473 544 36,900  Level Aus ATC (RADAR)
Sat 05:45:29 AM -24.5216 119.9133 20° North 465 535 36,900  Level Aus ATC (RADAR)
Sat 05:45:44 AM -24.4896 119.9266 21° North 473 544 36,900  Level Aus ATC (RADAR)
Sat 05:46:19 AM -24.4186 119.9552 20° North 470 541 36,900  Level Aus ATC (RADAR)
Sat 05:47:09 AM -24.3157 119.9970 20° North 473 544 36,900  Level Aus ATC (RADAR)
Sat 05:47:24 AM -24.2847 120.0097 20° North 472 543 36,900  Level Aus ATC (RADAR)
Sat 05:47:54 AM -24.2236 120.0343 20° North 470 541 36,900  Level Aus ATC (RADAR)
Sat 05:48:44 AM -24.1202 120.0764 20° North 474 545 36,900  Level Aus ATC (RADAR)
Sat 05:49:24 AM -24.0378 120.1097 20° North 473 544 36,900  Level Aus ATC (RADAR)
Sat 05:49:59 AM -23.9667 120.1384 20° North 470 541 36,900  Level Aus ATC (RADAR)
Sat 05:50:49 AM -23.8638 120.1800 20° North 472 543 36,900  Level Aus ATC (RADAR)
Sat 05:51:09 AM -23.8242 120.1961 20° North 467 537 36,900  Level Aus ATC (RADAR)
Sat 05:51:43 AM -23.7484 120.2259 20° North 485 558 36,900  Level Aus ATC (RADAR)
Sat 05:52:33 AM -23.6449 120.2671 20° North 504 580 36,900  Level Aus ATC (RADAR)
Sat 05:53:08 AM -23.5785 120.2949 21° North 463 533 36,900  Level Aus ATC (RADAR)
Sat 05:54:03 AM -23.4656 120.3403 20° North 471 542 36,900  Level Aus ATC (RADAR)
Sat 05:54:28 AM -23.4120 120.3611 20° North 478 550 36,900  Level Aus ATC (RADAR)
Sat 05:54:58 AM -23.3523 120.3856 21° North 468 539 36,900  Level Aus ATC (RADAR)
Sat 05:55:48 AM -23.2462 120.4268 20° North 480 552 36,900  Level Aus ATC (RADAR)
Sat 05:56:23 AM -23.1743 120.4554 20° North 475 547 36,900  Level Aus ATC (RADAR)
Sat 05:57:13 AM -23.0723 120.4963 20° North 470 541 36,900  Level Aus ATC (RADAR)
Sat 05:57:33 AM -23.0313 120.5126 20° North 468 539 36,900  Level Aus ATC (RADAR)
Sat 05:58:08 AM -22.9591 120.5412 20° North 471 542 36,900  Level Aus ATC (RADAR)
Sat 05:59:03 AM -22.8470 120.5862 20° North 468 539 36,900  Level Aus ATC (RADAR)
Sat 05:59:18 AM -22.8155 120.5982 19° North 469 540 36,900  Level Aus ATC (RADAR)
Sat 05:59:48 AM -22.7542 120.6227 20° North 469 540 36,900 75 Level Aus ATC (RADAR)
Sat 06:00:38 AM -22.6519 120.6634 20° North 469 540 37,000 94 Climbing Aus ATC (RADAR)
Sat 06:00:52 AM -22.6218 120.6758 21° North 467 537 37,000  Level Aus ATC (RADAR)
Sat 06:01:22 AM -22.5596 120.7000 20° North 469 540 37,000  Level Aus ATC (RADAR)
Sat 06:02:13 AM -22.4555 120.7404 20° North 474 545 37,000  Level Aus ATC (RADAR)
Sat 06:02:38 AM -22.4038 120.7608 20° North 474 545 37,000  Level Aus ATC (RADAR)
Sat 06:03:12 AM -22.3322 120.7893 20° North 471 542 37,000  Level Aus ATC (RADAR)
Sat 06:04:07 AM -22.2181 120.8343 20° North 471 542 37,000  Level Aus ATC (RADAR)
Sat 06:04:22 AM -22.1862 120.8462 19° North 474 545 37,000  Level Aus ATC (RADAR)
Sat 06:04:57 AM -22.1135 120.8744 20° North 473 544 37,000 -71 Level Aus ATC (RADAR)
Sat 06:05:47 AM -22.0119 120.9152 20° North 468 539 36,900 -92 Descending Aus ATC (RADAR)
Sat 06:06:02 AM -21.9811 120.9273 20° North 468 539 36,900  Level Aus ATC (RADAR)
Sat 06:06:32 AM -21.9195 120.9514 20° North 468 539 36,900  Level Aus ATC (RADAR)
Sat 06:07:22 AM -21.8156 120.9910 19° North 470 541 36,900  Level Aus ATC (RADAR)
Sat 06:07:42 AM -21.7742 121.0068 20° North 471 542 36,900  Level Aus ATC (RADAR)
Sat 06:08:17 AM -21.7023 121.0348 20° North 470 541 36,900 143 Level Aus ATC (RADAR)
Sat 06:08:24 AM -21.6940 121.0410 20° North 471 542 37,000 133 Climbing FlightAware ADS-B
Sat 06:09:02 AM -21.6280 121.0660 19° North 471 542 37,000  Level FlightAware ADS-B
Sat 06:09:39 AM -21.5630 121.0920 20° North 471 542 37,000  Level FlightAware ADS-B
Sat 06:10:15 AM -21.5010 121.1160 20° North 471 542 37,000  Level FlightAware ADS-B
Sat 06:10:51 AM -21.4380 121.1410 20° North 471 542 37,000 -90 Level FlightAware ADS-B
Sat 06:11:22 AM -21.3263 121.1809 20° North 461 531 36,900  Descending Aus ATC (RADAR)
Sat 06:11:28 AM -21.3730 121.1660 20° North 471 542 37,000 140 Climbing FlightAware ADS-B
Sat 06:12:05 AM -21.3090 121.1910 20° North 471 542 37,000  Level FlightAware ADS-B
Sat 06:12:41 AM -21.2460 121.2150 20° North 471 542 37,000  Level FlightAware ADS-B
Sat 06:13:17 AM -21.1840 121.2400 21° North 471 542 37,000  Level FlightAware ADS-B
Sat 06:13:53 AM -21.1210 121.2640 20° North 471 542 37,000  Level FlightAware ADS-B
Sat 06:14:07 AM -20.9857 121.3135 198° South 37,000  Level Aus ATC (Calculated)
Sat 06:14:29 AM -21.0580 121.2890 20° North 471 542 37,000  Level FlightAware ADS-B
Sat 06:15:05 AM -20.9960 121.3130 20° North 471 542 37,000  Level FlightAware ADS-B
Sat 06:15:41 AM -20.9330 121.3380 20° North 471 542 37,000  Level FlightAware ADS-B
Sat 06:16:17 AM -20.8700 121.3620 20° North 471 542 37,000  Level FlightAware ADS-B
Sat 06:16:53 AM -20.8080 121.3870 21° North 471 542 37,000  Level FlightAware ADS-B
Sat 06:17:29 AM -20.7450 121.4110 20° North 471 542 37,000  Level FlightAware ADS-B
Sat 06:18:05 AM -20.6820 121.4350 20° North 471 542 37,000  Level FlightAware ADS-B
Sat 06:19:06 AM -20.3459 121.5610 20° North 37,000  Level Aus ATC (Calculated)
Sat 06:20:30 AM -20.1278 121.6449 282° West 37,000  Level Aus ATC (Calculated)
Sat 06:21:00 AM -20.1235 121.6240 15° North  Level Estimated
Sat 06:21:55 AM -19.9694 121.7053 326° Northwest 9,300  Level Aus ATC (Calculated)
Sat 06:22:00 AM -19.9517 121.6928 14° North  Level Estimated
Sat 06:23:00 AM -19.8420 121.7388 14° North  Level Estimated
Sat 06:23:30 AM -19.7780 121.7781 13° North 9,300  Level Aus ATC (Calculated)
Sat 06:25:00 AM -19.6012 121.8223 13° North  Level Estimated
Sat 06:26:00 AM -19.4833 121.8517 13° North  Level Estimated
Sat 06:26:14 AM -19.5268 121.8734 20° North 9,300  Level Aus ATC (Calculated)
Sat 06:27:54 AM -19.3226 121.9506 280° West 9,300  Level Aus ATC (Calculated)
Sat 06:28:00 AM -19.3176 121.9212 12° North  Level Estimated
Sat 06:29:00 AM -19.1918 121.9775 11° North  Level Estimated
Sat 06:30:00 AM -19.0729 122.0019 11° North  Level Estimated
Sat 06:30:10 AM -19.1014 122.0341 20° North 9,300  Level Aus ATC (Calculated)
Sat 06:30:49 AM -19.0184 122.0653 20° North 9,300  Level Aus ATC (Calculated)
Sat 06:31:46 AM -18.9458 122.0926 356° North 9,300  Level Aus ATC (Calculated)
Sat 06:32:00 AM -18.8766 122.0874 North  Level Estimated
Sat 06:32:28 AM -18.8823 122.1165 20° North 9,300  Level Aus ATC (Calculated)
Sat 06:33:49 AM -18.7155 122.1791 North 9,300  Level Aus ATC (Calculated)
Sat 06:35:00 AM -18.5725 122.1889 North  Level Estimated
Sat 06:36:00 AM -18.4516 122.1971 North  Level Estimated
Sat 06:36:04 AM -18.4375 122.2831 354° North 500  Level Aus ATC (Calculated)
Sat 06:38:00 AM -18.2044 122.2587 354° North  Level Estimated
Sat 06:38:58 AM -18.2533 122.2651 354° North 500  Level Aus ATC (Calculated)
Sat 06:39:00 AM -18.0839 122.2462 354° North  Level Estimated
Sat 06:40:00 AM -18.1288 122.2516 354° North  Level Estimated
Sat 06:41:00 AM -18.0083 122.2385 354° North  Level Estimated
Sat 06:41:58 AM -18.0077 122.2413 360° North 500  Level Aus ATC (Calculated)
Sat 06:41:58 AM -18.0077 122.2413 360° North 500  Level Aus ATC (Calculated)
Sat 06:41:58 AM -18.0077 122.2413 352° North 500  Level Aus ATC (Calculated)
Sat 06:42:00 AM -17.9447 122.2317 354° North  Level Estimated
Sat 06:43:00 AM -17.9447 122.2317 352° North  Level Estimated
Sat 06:44:00 AM -17.9447 122.2317 235° Southwest  Level Estimated
Sat 06:45:00 AM -17.9447 122.2317 352° North  Level Estimated

Login

Don't have an account? Register now (free) for customized features, flight alerts, and more!